createdAt,value
2024-01-22T00:02:53.350Z,77.91
2024-01-22T00:07:53.209Z,77.95
2024-01-22T00:12:53.345Z,77.68
2024-01-22T00:17:53.312Z,77.47
2024-01-22T00:22:53.169Z,76.70
2024-01-22T00:27:53.306Z,76.71
2024-01-22T00:32:53.326Z,76.01
2024-01-22T00:37:53.154Z,75.71
2024-01-22T00:42:59.774Z,74.74
2024-01-22T00:47:53.225Z,74.74
2024-01-22T00:52:53.307Z,74.25
2024-01-22T00:57:54.915Z,74.13
2024-01-22T01:02:53.143Z,73.65
2024-01-22T01:07:53.174Z,73.51
2024-01-22T01:12:53.336Z,73.33
2024-01-22T01:17:53.279Z,73.31
2024-01-22T01:22:53.352Z,72.48
2024-01-22T01:27:54.955Z,72.53
2024-01-22T01:32:53.547Z,72.72
2024-01-22T01:37:53.089Z,72.05
2024-01-22T01:42:55.082Z,72.46
2024-01-22T01:47:53.537Z,72.10
2024-01-22T01:52:54.192Z,71.99
2024-01-22T01:58:00.528Z,71.35
2024-01-22T02:02:53.368Z,70.93
2024-01-22T02:07:53.115Z,71.12
2024-01-22T02:12:54.688Z,70.52
2024-01-22T02:17:54.493Z,70.23
2024-01-22T02:22:54.217Z,69.83
2024-01-22T02:27:54.914Z,69.70
2024-01-22T02:32:53.280Z,70.48
2024-01-22T02:37:53.076Z,70.53
2024-01-22T02:42:53.291Z,70.40
2024-01-22T02:47:55.339Z,70.31
2024-01-22T02:52:53.021Z,70.16
2024-01-22T02:57:53.256Z,70.26
2024-01-22T03:02:53.216Z,70.28
2024-01-22T03:07:53.059Z,70.02
2024-01-22T03:12:53.045Z,69.66
2024-01-22T03:17:53.196Z,69.19
2024-01-22T03:22:52.987Z,68.89
2024-01-22T03:27:53.407Z,68.25
2024-01-22T03:32:53.477Z,67.50
2024-01-22T03:37:53.021Z,66.33
2024-01-22T03:42:53.048Z,66.26
2024-01-22T03:47:53.296Z,65.32
2024-01-22T03:52:53.038Z,64.89
2024-01-22T03:57:52.989Z,64.72
2024-01-22T04:02:55.123Z,63.94
2024-01-22T04:07:52.930Z,63.81
2024-01-22T04:12:54.905Z,63.04
2024-01-22T04:17:55.140Z,62.37
2024-01-22T04:22:52.970Z,62.50
2024-01-22T04:27:55.149Z,62.20
2024-01-22T04:32:54.932Z,61.36
2024-01-22T04:37:53.407Z,61.66
2024-01-22T04:42:52.911Z,61.05
2024-01-22T04:47:53.071Z,61.14
2024-01-22T04:52:52.934Z,61.71
2024-01-22T04:57:52.909Z,61.85
2024-01-22T05:02:54.995Z,61.59
2024-01-22T05:07:52.898Z,61.68
2024-01-22T05:12:53.126Z,61.59
2024-01-22T05:17:53.159Z,61.28
2024-01-22T05:22:52.915Z,61.34
2024-01-22T05:27:53.052Z,61.60
2024-01-22T05:32:53.766Z,61.68
2024-01-22T05:37:52.842Z,61.21
2024-01-22T05:42:52.972Z,61.01
2024-01-22T05:47:54.703Z,61.56
2024-01-22T05:52:53.354Z,61.41
2024-01-22T05:57:52.863Z,62.15
2024-01-22T06:02:54.492Z,62.48
2024-01-22T06:07:52.844Z,62.33
2024-01-22T06:12:53.287Z,61.95
2024-01-22T06:17:55.139Z,61.82
2024-01-22T06:22:52.898Z,61.58
2024-01-22T06:27:52.850Z,62.16
2024-01-22T06:32:54.994Z,61.35
2024-01-22T06:37:52.876Z,61.04
2024-01-22T06:42:52.879Z,61.03
2024-01-22T06:47:53.179Z,60.27
2024-01-22T06:52:52.937Z,60.57
2024-01-22T06:57:52.834Z,59.31
2024-01-22T07:02:53.102Z,59.47
2024-01-22T07:07:53.387Z,59.35
2024-01-22T07:12:52.749Z,58.14
2024-01-22T07:17:54.743Z,57.79
2024-01-22T07:22:54.030Z,56.86
2024-01-22T07:27:52.808Z,56.20
2024-01-22T07:32:54.847Z,54.97
2024-01-22T07:37:52.763Z,54.23
2024-01-22T07:42:52.865Z,54.72
2024-01-22T07:47:54.742Z,52.85
2024-01-22T07:52:52.749Z,53.16
2024-01-22T07:57:52.818Z,52.45
2024-01-22T08:02:52.954Z,51.99
2024-01-22T08:07:52.719Z,51.31
2024-01-22T08:12:52.780Z,50.80
2024-01-22T08:17:52.966Z,50.90
2024-01-22T08:22:52.914Z,50.16
2024-01-22T08:27:53.230Z,50.41
2024-01-22T08:32:54.222Z,49.77
2024-01-22T08:37:52.820Z,49.34
2024-01-22T08:42:54.434Z,48.59
2024-01-22T08:47:54.915Z,48.82
2024-01-22T08:52:53.193Z,49.15
2024-01-22T08:57:54.301Z,48.14
2024-01-22T09:02:53.078Z,48.51
2024-01-22T09:07:53.842Z,47.93
2024-01-22T09:12:52.904Z,48.05
2024-01-22T09:17:55.271Z,47.97
2024-01-22T09:22:53.020Z,47.82
2024-01-22T09:27:53.135Z,47.83
2024-01-22T09:32:58.023Z,48.27
2024-01-22T09:37:53.090Z,47.04
2024-01-22T09:42:53.230Z,46.82
2024-01-22T09:47:53.026Z,47.02
2024-01-22T09:52:53.175Z,46.85
2024-01-22T09:57:54.076Z,46.95
2024-01-22T10:02:53.840Z,47.28
2024-01-22T10:07:52.973Z,47.35
2024-01-22T10:12:56.637Z,47.08
2024-01-22T10:17:53.240Z,46.80
2024-01-22T10:23:00.072Z,45.72
2024-01-22T10:28:07.819Z,46.22
2024-01-22T10:33:12.312Z,45.93
2024-01-22T10:38:04.792Z,45.63
2024-01-22T10:42:54.438Z,45.63
2024-01-22T10:47:57.982Z,46.00
2024-01-22T10:52:54.148Z,45.92
2024-01-22T10:57:56.701Z,45.67
2024-01-22T11:02:56.563Z,45.01
2024-01-22T11:07:53.958Z,45.72
2024-01-22T11:12:55.032Z,44.57
2024-01-22T11:17:52.775Z,44.97
2024-01-22T11:23:00.187Z,43.48
2024-01-22T11:28:00.900Z,43.71
2024-01-22T11:32:52.713Z,43.71
2024-01-22T11:37:52.604Z,43.66
2024-01-22T11:42:54.653Z,42.81
2024-01-22T11:47:52.644Z,42.15
2024-01-22T11:52:59.642Z,40.86
2024-01-22T11:57:52.644Z,40.86
2024-01-22T12:02:57.203Z,39.37
2024-01-22T12:07:52.604Z,39.57
2024-01-22T12:12:54.632Z,38.55
2024-01-22T12:17:53.638Z,38.30
2024-01-22T12:22:56.680Z,37.85
2024-01-22T12:28:03.066Z,37.42
2024-01-22T12:32:53.457Z,37.42
2024-01-22T12:37:52.602Z,37.05
2024-01-22T12:42:59.135Z,37.55
2024-01-22T12:47:52.729Z,39.13
2024-01-22T12:52:52.545Z,40.66
2024-01-22T12:57:52.792Z,41.40
2024-01-22T13:02:52.586Z,41.62
2024-01-22T13:07:52.553Z,41.72
2024-01-22T13:11:23.576Z,41.73
2024-01-22T13:12:52.470Z,41.73
2024-01-22T13:17:52.815Z,41.71
2024-01-22T13:22:55.439Z,41.74
2024-01-22T13:27:54.417Z,41.61
2024-01-22T13:32:55.377Z,41.83
2024-01-22T13:37:52.608Z,41.83
2024-01-22T13:43:00.319Z,41.68
2024-01-22T13:47:53.658Z,41.68
2024-01-22T13:52:53.871Z,41.06
2024-01-22T13:57:54.044Z,39.71
2024-01-22T14:02:52.468Z,38.99
2024-01-22T14:07:54.682Z,39.17
2024-01-22T14:12:52.404Z,39.05
2024-01-22T14:17:52.903Z,38.36
2024-01-22T14:22:52.713Z,38.06
2024-01-22T14:27:52.487Z,38.11
2024-01-22T14:32:52.698Z,38.28
2024-01-22T14:37:52.687Z,38.04
2024-01-22T14:42:52.843Z,37.91
2024-01-22T14:47:54.498Z,38.34
2024-01-22T14:52:52.936Z,38.59
2024-01-22T14:57:52.570Z,38.27
2024-01-22T15:02:52.425Z,38.28
2024-01-22T15:07:54.419Z,38.22
2024-01-22T15:12:52.596Z,38.33
2024-01-22T15:17:53.515Z,38.70
2024-01-22T15:22:53.777Z,39.27
2024-01-22T15:27:52.562Z,38.94
2024-01-22T15:32:53.751Z,39.62
2024-01-22T15:37:52.657Z,39.49
2024-01-22T15:42:52.436Z,39.95
2024-01-22T15:47:52.445Z,40.00
2024-01-22T15:52:55.846Z,40.24
2024-01-22T15:57:52.386Z,40.80
2024-01-22T16:02:52.519Z,41.11
2024-01-22T16:07:52.394Z,41.33
2024-01-22T16:12:52.443Z,41.44
2024-01-22T16:17:52.683Z,41.97
2024-01-22T16:22:54.414Z,42.02
2024-01-22T16:27:53.311Z,42.54
2024-01-22T16:32:52.620Z,42.42
2024-01-22T16:37:52.451Z,42.70
2024-01-22T16:42:52.337Z,42.31
2024-01-22T16:47:52.359Z,42.61
2024-01-22T16:52:53.942Z,43.94
2024-01-22T16:57:52.296Z,45.26
2024-01-22T17:02:52.626Z,45.00
2024-01-22T17:07:54.325Z,45.57
2024-01-22T17:12:52.282Z,46.95
2024-01-22T17:17:53.275Z,48.15
2024-01-22T17:22:52.525Z,49.12
2024-01-22T17:27:52.875Z,52.62
2024-01-22T17:32:52.424Z,56.14
2024-01-22T17:37:54.710Z,59.03
2024-01-22T17:42:52.247Z,59.47
2024-01-22T17:47:52.387Z,58.58
2024-01-22T17:52:52.607Z,57.69
2024-01-22T17:57:52.263Z,56.26
2024-01-22T18:02:52.343Z,54.59
2024-01-22T18:07:54.613Z,51.81
2024-01-22T18:12:52.394Z,50.31
2024-01-22T18:17:52.503Z,50.26
2024-01-22T18:22:52.881Z,49.32
2024-01-22T18:27:52.288Z,47.76
2024-01-22T18:32:52.301Z,47.82
2024-01-22T18:37:54.539Z,47.77
2024-01-22T18:42:52.426Z,48.51
2024-01-22T18:47:52.486Z,48.61
2024-01-22T18:52:55.367Z,47.87
2024-01-22T18:57:52.170Z,47.31
2024-01-22T19:02:54.785Z,47.79
2024-01-22T19:08:04.167Z,47.95
2024-01-22T19:12:52.139Z,47.95
2024-01-22T19:17:52.321Z,48.44
2024-01-22T19:22:55.979Z,48.26
2024-01-22T19:27:52.248Z,48.35
2024-01-22T19:32:52.414Z,48.66
2024-01-22T19:37:54.090Z,48.66
2024-01-22T19:42:52.337Z,49.06
2024-01-22T19:47:52.703Z,49.53
2024-01-22T19:52:52.539Z,49.75
2024-01-22T19:57:52.377Z,50.08
2024-01-22T20:02:52.310Z,50.32
2024-01-22T20:07:55.505Z,50.57
2024-01-22T20:12:52.161Z,50.84
2024-01-22T20:17:52.536Z,51.16
2024-01-22T20:22:56.189Z,51.15
2024-01-22T20:27:52.212Z,51.31
2024-01-22T20:32:52.313Z,51.74
2024-01-22T20:37:54.892Z,52.03
2024-01-22T20:42:52.241Z,52.28
2024-01-22T20:47:54.211Z,52.61
2024-01-22T20:52:53.842Z,53.01
2024-01-22T20:57:52.103Z,53.29
2024-01-22T21:02:52.408Z,53.68
2024-01-22T21:07:52.377Z,53.88
2024-01-22T21:12:53.453Z,54.00
2024-01-22T21:17:52.146Z,54.40
2024-01-22T21:22:52.574Z,54.89
2024-01-22T21:27:52.040Z,55.21
2024-01-22T21:32:52.248Z,55.63
2024-01-22T21:37:52.349Z,56.24
2024-01-22T21:42:52.230Z,57.07
2024-01-22T21:47:52.406Z,58.17
2024-01-22T21:52:52.394Z,58.85
2024-01-22T21:57:52.039Z,59.35
2024-01-22T22:02:53.073Z,63.15
2024-01-22T22:07:52.073Z,67.86
2024-01-22T22:12:52.126Z,71.54
2024-01-22T22:17:52.286Z,76.09
2024-01-22T22:22:52.602Z,78.73
2024-01-22T22:27:52.077Z,81.07
2024-01-22T22:32:57.447Z,82.85
2024-01-22T22:37:55.041Z,84.04
2024-01-22T22:42:51.985Z,84.64
2024-01-22T22:47:52.168Z,84.20
2024-01-22T22:52:52.292Z,84.90
2024-01-22T22:57:53.644Z,84.98
2024-01-22T23:02:52.172Z,84.24
2024-01-22T23:07:52.632Z,84.37
2024-01-22T23:12:51.975Z,85.37
2024-01-22T23:17:52.052Z,84.97
2024-01-22T23:22:52.386Z,85.27
2024-01-22T23:27:51.957Z,85.54
2024-01-22T23:32:52.273Z,84.61
2024-01-22T23:37:58.650Z,86.79
2024-01-22T23:42:52.148Z,86.79
2024-01-22T23:47:53.072Z,86.69
2024-01-22T23:52:52.221Z,88.19
2024-01-22T23:57:52.014Z,88.17
